Urb Cambalache Ii, Puerto Rico
Current Conditions -  °F | °C
As of 12:56 PM on Tuesday 27 Jan 2015 (Local Time) from TJSJ Reporting Station
Scattered Clouds Scattered Clouds  
Wind Chill: 86°   Ceiling: Unl
Heat Index: 91°   Visibility: 10mi
Dew Point: 71°   Wind: 7mph
Humidity: 61%   Direction: 180°S
Pressure: 29.99"   Gusts: NA
Location:  18.3817°N, 65.8302°W
Report Text: TJSJ 271656Z 18006KT 10SM FEW039 SCT055 30/22 A2999 RMK AO2 SLP153 SHRA DSNT W T03000217 $
Loading
Personal Weather Stations






























Interactive Weather Map New forecast layout! Learn more

10-Day Weather Forecast

Advertisements
Track Severe Weather on mobile